Time;durP1;ratioP1;P1;durP2;ratioP2;P2;SDS_P1;SDS_P2;PMS_P1;PMS_P2;Temp;Humidity;BMP_temperature;BMP_pressure;BME280_temperature;BME280_humidity;BME280_pressure;Samples;Min_cycle;Max_cycle;Signal;HPM_P1;HPM_P2
2022/04/05 00:01:36;;;;;;;13.93;6.85;;;;;;;5.38;82.88;99068.94;12205515;19;20054;-81
2022/04/05 00:05:38;;;;;;;10.75;6.55;;;;;;;5.41;82.73;99072.06;12224100;19;20017;-80
2022/04/05 00:09:40;;;;;;;12.38;7.13;;;;;;;5.45;82.53;99073.25;12248634;19;20022;-81
2022/04/05 00:13:41;;;;;;;10.43;6.80;;;;;;;5.51;82.10;99076.94;12216608;19;20014;-80
2022/04/05 00:17:43;;;;;;;12.75;6.05;;;;;;;5.57;81.50;99069.72;12246641;19;20014;-81
2022/04/05 00:21:45;;;;;;;12.20;6.37;;;;;;;5.55;82.02;99067.19;12244681;19;20019;-80
2022/04/05 00:25:47;;;;;;;13.07;6.47;;;;;;;5.51;83.98;99062.47;12206404;19;20409;-78
2022/04/05 00:29:49;;;;;;;13.48;7.75;;;;;;;5.41;85.06;99052.94;12206241;19;20023;-79
2022/04/05 00:33:51;;;;;;;14.00;8.00;;;;;;;5.36;86.55;99057.44;12187016;19;20027;-78
2022/04/05 00:37:52;;;;;;;14.63;6.87;;;;;;;5.26;89.20;99060.72;12207063;19;20014;-79
2022/04/05 00:41:54;;;;;;;11.07;6.35;;;;;;;5.13;90.50;99045.38;12210248;19;20090;-79
2022/04/05 00:45:56;;;;;;;12.27;7.15;;;;;;;5.07;91.10;99042.75;12196475;19;20342;-79
2022/04/05 00:49:59;;;;;;;12.20;6.17;;;;;;;5.10;90.90;99042.28;12210535;19;20468;-80
2022/04/05 00:54:04;;;;;;;9.73;6.20;;;;;;;5.14;91.20;99035.28;12210701;19;20024;-79
2022/04/05 00:58:07;;;;;;;12.20;5.82;;;;;;;5.13;91.40;99030.91;12192103;19;20017;-79
2022/04/05 01:02:14;;;;;;;13.27;6.00;;;;;;;5.15;91.01;99039.69;12213793;19;20045;-79
2022/04/05 01:06:22;;;;;;;12.45;6.72;;;;;;;5.09;91.99;99033.25;12211464;19;20010;-78
2022/04/05 01:10:26;;;;;;;11.38;6.95;;;;;;;4.99;94.05;99031.06;12197660;19;20020;-79
2022/04/05 01:14:28;;;;;;;8.90;6.10;;;;;;;5.00;94.55;99035.50;12209434;19;20472;-79
2022/04/05 01:18:30;;;;;;;15.10;7.47;;;;;;;5.06;92.80;99043.78;12211856;19;20010;-79
2022/04/05 01:22:32;;;;;;;11.00;6.60;;;;;;;5.01;94.58;99041.78;12194876;19;20017;-79
2022/04/05 01:26:55;;;;;;;14.47;7.67;;;;;;;4.98;95.60;99050.44;12209874;19;20014;-78
2022/04/05 01:30:57;;;;;;;14.02;7.15;;;;;;;4.91;97.46;99047.81;12187205;19;20259;-77
2022/04/05 01:34:58;;;;;;;11.05;7.43;;;;;;;4.90;98.00;99057.03;12205155;19;20019;-79
2022/04/05 01:39:00;;;;;;;13.95;7.07;;;;;;;4.91;98.39;99053.28;12211573;19;20526;-79
2022/04/05 01:43:02;;;;;;;11.13;6.82;;;;;;;4.90;99.25;99048.03;12186935;19;20031;-78
2022/04/05 01:47:09;;;;;;;7.37;4.07;;;;;;;4.91;99.48;99042.34;12209288;19;20014;-78
2022/04/05 01:51:10;;;;;;;14.02;6.70;;;;;;;4.96;99.05;99044.38;12210060;19;20283;-78
2022/04/05 01:55:12;;;;;;;11.18;6.55;;;;;;;4.99;98.52;99036.53;12187483;19;20014;-78
2022/04/05 01:59:17;;;;;;;14.27;6.60;;;;;;;5.02;98.66;99033.34;12205015;19;20531;-80
2022/04/05 02:03:21;;;;;;;11.18;6.15;;;;;;;5.02;98.83;99033.34;12218150;19;20013;-80
2022/04/05 02:07:23;;;;;;;14.27;5.43;;;;;;;5.02;99.33;99041.53;12200923;19;20010;-79
2022/04/05 02:11:25;;;;;;;9.70;5.28;;;;;;;5.08;98.27;99036.22;12223546;19;20011;-80
2022/04/05 02:15:33;;;;;;;7.50;5.13;;;;;;;5.15;97.42;99036.97;12222055;19;20006;-79
2022/04/05 02:19:40;;;;;;;9.18;5.40;;;;;;;5.19;96.77;99032.69;12208315;19;20077;-79
2022/04/05 02:23:44;;;;;;;7.78;5.05;;;;;;;5.22;96.85;99029.50;12215533;19;20010;-81
2022/04/05 02:27:52;;;;;;;8.38;4.85;;;;;;;5.25;96.74;99029.03;12189210;19;20010;-80
2022/04/05 02:32:02;;;;;;;8.02;4.70;;;;;;;5.24;96.48;99024.63;12236980;19;20095;-81
2022/04/05 02:36:05;;;;;;;7.70;4.43;;;;;;;5.21;97.82;99022.38;12238484;19;20019;-81
2022/04/05 02:40:08;;;;;;;7.25;4.80;;;;;;;5.22;98.32;99024.03;12224559;19;19988;-81
2022/04/05 02:44:10;;;;;;;9.32;5.43;;;;;;;5.25;98.25;99026.28;12254285;19;20007;-81
2022/04/05 02:48:13;;;;;;;8.48;4.97;;;;;;;5.25;98.93;99029.84;12242411;19;20007;-80
2022/04/05 02:52:16;;;;;;;6.50;4.57;;;;;;;5.29;98.47;99024.75;12188475;19;20066;-80
2022/04/05 02:56:33;;;;;;;6.20;4.53;;;;;;;5.34;98.37;99024.06;12216449;19;20017;-80
2022/04/05 03:00:38;;;;;;;6.60;4.22;;;;;;;5.33;98.82;99022.41;12219543;19;20006;-81
2022/04/05 03:04:45;;;;;;;7.00;3.47;;;;;;;5.38;98.43;99015.13;12183449;19;20039;-80
2022/04/05 03:08:52;;;;;;;9.02;4.65;;;;;;;5.44;97.83;99022.41;12217410;19;20011;-80
2022/04/05 03:12:55;;;;;;;9.75;5.40;;;;;;;5.46;98.16;99024.91;12187156;19;20024;-79
2022/04/05 03:16:58;;;;;;;7.95;4.85;;;;;;;5.47;98.48;99019.22;12221147;19;20165;-79
2022/04/05 03:21:00;;;;;;;6.20;4.22;;;;;;;5.48;98.44;99025.50;12223704;19;20261;-81
2022/04/05 03:25:02;;;;;;;6.47;4.03;;;;;;;5.48;98.57;99020.88;12214932;19;20015;-79
2022/04/05 03:29:04;;;;;;;6.72;4.55;;;;;;;5.56;97.74;99019.69;12214741;19;20003;-80
2022/04/05 03:33:06;;;;;;;11.27;4.70;;;;;;;5.52;98.57;99023.13;12213487;19;20014;-80
2022/04/05 03:37:09;;;;;;;6.60;3.67;;;;;;;5.56;98.33;99016.97;12187437;19;20010;-81
2022/04/05 03:41:11;;;;;;;18.80;5.00;;;;;;;5.59;98.26;99021.09;12213951;19;20010;-79
2022/04/05 03:45:16;;;;;;;5.50;3.85;;;;;;;5.56;98.86;99011.50;12207825;19;20366;-80
2022/04/05 03:49:19;;;;;;;7.38;4.70;;;;;;;5.55;99.19;99012.53;12186045;19;20059;-79
2022/04/05 03:53:26;;;;;;;9.07;4.47;;;;;;;5.58;98.52;99014.81;12207966;19;20014;-80
2022/04/05 03:57:28;;;;;;;7.93;3.70;;;;;;;5.58;99.08;99008.50;12208276;19;20034;-79
2022/04/05 04:01:32;;;;;;;8.68;4.95;;;;;;;5.59;99.25;99002.81;12183947;19;20010;-80
2022/04/05 04:05:34;;;;;;;6.05;4.10;;;;;;;5.51;100.00;99011.38;12212523;19;20029;-81
2022/04/05 04:09:37;;;;;;;;;;;;;;;5.53;100.00;99002.91;12214011;19;20011;-82
2022/04/05 04:13:41;;;;;;;6.80;4.45;;;;;;;5.52;100.00;98999.34;12182586;19;19922;-79
2022/04/05 04:17:43;;;;;;;6.30;4.53;;;;;;;5.55;100.00;99004.34;12211975;19;20007;-80
2022/04/05 04:21:45;;;;;;;7.57;4.13;;;;;;;5.58;100.00;98997.56;12212089;19;20006;-80
2022/04/05 04:25:47;;;;;;;6.55;4.45;;;;;;;5.58;100.00;98994.84;12187959;19;20317;-79
2022/04/05 04:29:49;;;;;;;7.53;3.93;;;;;;;5.58;100.00;98994.84;12209228;19;20017;-79
2022/04/05 04:33:51;;;;;;;6.25;3.75;;;;;;;5.59;100.00;98989.16;12183630;19;20014;-79
2022/04/05 04:37:53;;;;;;;6.97;3.80;;;;;;;5.60;100.00;98984.53;12218835;19;20010;-80
2022/04/05 04:41:57;;;;;;;6.00;3.60;;;;;;;5.61;100.00;98995.19;12215718;19;20019;-80
2022/04/05 04:45:59;;;;;;;5.65;3.67;;;;;;;5.66;100.00;98999.97;12182886;19;20014;-79
2022/04/05 04:50:01;;;;;;;6.85;3.70;;;;;;;5.63;100.00;98994.97;12216183;19;20399;-79
2022/04/05 04:54:02;;;;;;;6.93;3.70;;;;;;;5.70;100.00;99001.13;12200373;19;20018;-78
2022/04/05 04:58:04;;;;;;;7.82;4.28;;;;;;;5.81;99.42;98997.56;12183384;19;20011;-79
2022/04/05 05:02:06;;;;;;;5.18;3.47;;;;;;;5.83;99.38;98998.19;12204237;19;20548;-78
2022/04/05 05:06:08;;;;;;;5.75;4.07;;;;;;;5.90;98.63;98996.13;12204045;19;20464;-78
2022/04/05 05:10:11;;;;;;;5.75;3.45;;;;;;;5.88;99.53;99008.38;12189000;19;20015;-78
2022/04/05 05:14:13;;;;;;;6.90;4.03;;;;;;;5.88;99.56;99009.22;12198234;19;20085;-79
2022/04/05 05:18:16;;;;;;;7.00;3.75;;;;;;;5.90;99.80;99003.50;12204590;19;20019;-77
2022/04/05 05:22:18;;;;;;;6.22;3.72;;;;;;;5.91;99.34;99014.19;12173947;19;20045;-79
2022/04/05 05:26:19;;;;;;;5.05;3.40;;;;;;;5.92;99.39;99015.88;12203401;19;20643;-77
2022/04/05 05:30:22;;;;;;;6.97;3.70;;;;;;;6.03;98.74;99016.13;12200732;19;20011;-77
2022/04/05 05:34:24;;;;;;;5.63;3.72;;;;;;;6.07;98.15;99014.59;12180837;19;20006;-78
2022/04/05 05:38:26;;;;;;;6.43;3.77;;;;;;;6.08;98.36;99013.50;12201841;19;20125;-78
2022/04/05 05:42:28;;;;;;;7.45;4.03;;;;;;;6.08;98.72;99022.53;12202201;19;20019;-78
2022/04/05 05:46:29;;;;;;;5.60;3.97;;;;;;;6.06;99.32;99021.94;12176430;19;20110;-78
2022/04/05 05:50:31;;;;;;;5.78;3.45;;;;;;;6.01;100.00;99030.06;12202549;19;20017;-80
2022/04/05 05:54:33;;;;;;;8.00;4.45;;;;;;;5.98;100.00;99035.16;12206012;19;20019;-79
2022/04/05 05:58:35;;;;;;;7.05;4.00;;;;;;;5.89;100.00;99031.94;12187915;19;20029;-79
2022/04/05 06:02:41;;;;;;;6.80;4.22;;;;;;;5.77;100.00;99044.75;12206269;19;20014;-78
2022/04/05 06:06:43;;;;;;;7.05;4.50;;;;;;;5.69;100.00;99054.16;12223223;19;20006;-78
2022/04/05 06:10:44;;;;;;;8.48;4.85;;;;;;;5.64;100.00;99046.66;12200456;19;20008;-79
2022/04/05 06:14:46;;;;;;;8.10;4.18;;;;;;;5.61;100.00;99051.75;12219824;19;20006;-81
2022/04/05 06:18:48;;;;;;;13.40;4.82;;;;;;;5.55;100.00;99063.63;12212141;19;20023;-80
2022/04/05 06:22:54;;;;;;;8.30;4.90;;;;;;;5.58;100.00;99055.78;12225996;19;20357;-81
2022/04/05 06:26:55;;;;;;;7.97;5.00;;;;;;;5.54;100.00;99064.72;12232804;19;20338;-80
2022/04/05 06:30:58;;;;;;;8.55;5.45;;;;;;;5.53;100.00;99072.06;12207636;19;20011;-80
2022/04/05 06:35:04;;;;;;;7.38;4.63;;;;;;;5.49;100.00;99071.69;12228859;19;20014;-80
2022/04/05 06:39:06;;;;;;;7.97;5.28;;;;;;;5.52;100.00;99067.66;12225561;19;20363;-80
2022/04/05 06:43:08;;;;;;;8.13;4.50;;;;;;;5.56;100.00;99081.69;12204050;19;21491;-83
2022/04/05 06:47:11;;;;;;;10.13;5.40;;;;;;;5.54;100.00;99078.38;12228728;19;20006;-81
2022/04/05 06:51:13;;;;;;;10.38;5.35;;;;;;;5.55;100.00;99080.03;12227441;19;20021;-78
2022/04/05 06:55:16;;;;;;;7.97;4.93;;;;;;;5.59;100.00;99081.22;12202369;19;20011;-79
2022/04/05 06:59:18;;;;;;;7.40;4.47;;;;;;;5.63;100.00;99085.16;12223810;19;20026;-80
2022/04/05 07:03:19;;;;;;;9.02;4.97;;;;;;;5.65;100.00;99085.75;12224047;19;20019;-80
2022/04/05 07:07:21;;;;;;;10.90;4.67;;;;;;;5.63;100.00;99087.91;12198447;19;20006;-79
2022/04/05 07:11:23;;;;;;;9.05;5.15;;;;;;;5.63;100.00;99082.44;12234585;19;20492;-81
2022/04/05 07:15:25;;;;;;;7.22;4.50;;;;;;;5.60;100.00;99077.44;12215465;19;20469;-79
2022/04/05 07:19:26;;;;;;;8.18;4.85;;;;;;;5.64;100.00;99089.56;12196802;19;20090;-79
2022/04/05 07:23:28;;;;;;;8.98;4.90;;;;;;;5.66;100.00;99081.97;12193785;19;20572;-80
2022/04/05 07:27:30;;;;;;;8.57;5.43;;;;;;;5.69;100.00;99084.22;12216385;19;20015;-79
2022/04/05 07:31:32;;;;;;;15.13;8.75;;;;;;;5.66;100.00;99079.22;12189067;19;20003;-80
2022/04/05 07:35:33;;;;;;;19.63;9.63;;;;;;;5.58;100.00;99077.66;12206401;19;20102;-80
2022/04/05 07:39:36;;;;;;;19.63;9.75;;;;;;;5.48;100.00;99085.63;12211071;19;20010;-81
2022/04/05 07:43:38;;;;;;;21.52;10.50;;;;;;;5.41;100.00;99093.94;12186800;19;20023;-79
2022/04/05 07:47:41;;;;;;;19.17;10.75;;;;;;;5.42;100.00;99087.38;12209560;19;20018;-79
2022/04/05 07:51:42;;;;;;;19.60;8.93;;;;;;;5.37;100.00;99079.03;12209479;19;20428;-79
2022/04/05 07:55:44;;;;;;;17.95;9.77;;;;;;;5.44;100.00;99087.13;12183409;19;20010;-78
2022/04/05 07:59:46;;;;;;;15.90;8.73;;;;;;;5.53;100.00;99082.16;12213397;19;20010;-79
2022/04/05 08:03:48;;;;;;;21.35;9.05;;;;;;;5.56;100.00;99078.97;12186473;19;20018;-80
2022/04/05 08:07:50;;;;;;;15.43;8.57;;;;;;;5.60;100.00;99088.38;12205469;19;20023;-79
2022/04/05 08:11:52;;;;;;;16.83;8.63;;;;;;;5.63;100.00;99082.44;12209264;19;20051;-80
2022/04/05 08:15:54;;;;;;;16.13;9.25;;;;;;;5.67;100.00;99089.09;12183652;19;20017;-79
2022/04/05 08:19:56;;;;;;;16.52;8.82;;;;;;;5.67;100.00;99086.34;12202289;19;20006;-80
2022/04/05 08:23:58;;;;;;;17.63;8.25;;;;;;;5.78;100.00;99093.75;12215659;19;20796;-80
2022/04/05 08:28:00;;;;;;;12.20;8.73;;;;;;;5.88;100.00;99096.72;12191206;19;20031;-80
2022/04/05 08:32:02;;;;;;;14.53;8.73;;;;;;;5.91;100.00;99090.75;12212058;19;20124;-81
2022/04/05 08:36:04;;;;;;;16.08;9.38;;;;;;;5.97;100.00;99089.03;12210474;19;20464;-81
2022/04/05 08:40:07;;;;;;;14.65;8.68;;;;;;;6.00;100.00;99096.75;12191906;19;20013;-82
2022/04/05 08:44:10;;;;;;;19.00;9.75;;;;;;;6.12;100.00;99096.75;12212631;19;20015;-80
2022/04/05 08:48:12;;;;;;;16.13;8.68;;;;;;;6.12;100.00;99092.09;12211266;19;20007;-82
2022/04/05 08:52:14;;;;;;;12.93;8.82;;;;;;;6.23;100.00;99100.56;12190387;19;20479;-83
2022/04/05 08:56:16;;;;;;;16.83;8.35;;;;;;;6.21;100.00;99100.78;12213409;19;20428;-83
2022/04/05 09:00:19;;;;;;;16.25;9.15;;;;;;;6.18;100.00;99098.53;12214841;19;20010;-81
2022/04/05 09:04:21;;;;;;;17.40;9.15;;;;;;;6.16;100.00;99109.72;12181311;19;20420;-86
2022/04/05 09:08:28;;;;;;;16.92;9.63;;;;;;;6.11;100.00;99117.81;12216973;19;20018;-82
2022/04/05 09:12:43;;;;;;;14.20;8.85;;;;;;;6.10;100.00;99110.69;12243681;19;20044;-82
2022/04/05 09:16:45;;;;;;;14.15;8.20;;;;;;;6.09;100.00;99110.91;12200902;19;20016;-82
2022/04/05 09:20:48;;;;;;;13.60;8.27;;;;;;;6.13;100.00;99114.84;12225044;19;20039;-82
2022/04/05 09:24:49;;;;;;;16.75;8.65;;;;;;;6.13;100.00;99123.06;12199680;19;20025;-82
2022/04/05 09:28:51;;;;;;;15.70;8.13;;;;;;;6.07;100.00;99115.78;12212544;19;20432;-81
2022/04/05 09:32:57;;;;;;;12.15;7.22;;;;;;;6.12;100.00;99110.41;12215912;19;20014;-81
2022/04/05 09:37:08;;;;;;;17.05;7.32;;;;;;;6.15;100.00;99115.41;12190626;19;20026;-82
2022/04/05 09:41:19;;;;;;;10.35;6.20;;;;;;;6.19;100.00;99119.34;12222496;19;20720;-82
2022/04/05 09:45:41;;;;;;;11.32;7.63;;;;;;;6.20;100.00;99111.97;12223561;19;20232;-82
2022/04/05 09:49:45;;;;;;;12.93;7.38;;;;;;;6.19;100.00;99116.63;12206294;19;20010;-81
2022/04/05 09:53:57;;;;;;;15.52;8.68;;;;;;;6.22;100.00;99115.31;12252553;19;20304;-80
2022/04/05 09:58:10;;;;;;;12.32;6.97;;;;;;;6.27;100.00;99112.69;12217240;19;20079;-82
2022/04/05 10:02:17;;;;;;;14.40;8.38;;;;;;;6.35;100.00;99113.16;12207148;19;20007;-81
2022/04/05 10:06:24;;;;;;;12.45;7.05;;;;;;;6.39;100.00;99108.88;12215806;19;20017;-82
2022/04/05 10:10:26;;;;;;;11.07;6.97;;;;;;;6.34;100.00;99113.41;12188802;19;20400;-84
2022/04/05 10:14:31;;;;;;;12.52;7.72;;;;;;;6.34;100.00;99108.75;12206498;19;20042;-81
2022/04/05 10:18:34;;;;;;;13.77;8.00;;;;;;;6.37;100.00;99105.53;12214524;19;20084;-81
2022/04/05 10:22:38;;;;;;;13.25;8.32;;;;;;;6.46;100.00;99100.53;12191100;19;20010;-84
2022/04/05 10:26:48;;;;;;;12.18;7.82;;;;;;;6.58;100.00;99106.81;12207991;19;20068;-82
2022/04/05 10:30:55;;;;;;;12.20;7.53;;;;;;;6.59;100.00;99104.91;12188033;19;20006;-83
2022/04/05 10:35:03;;;;;;;14.15;7.60;;;;;;;6.62;100.00;99104.44;12197872;19;20426;-83
2022/04/05 10:39:13;;;;;;;11.77;6.72;;;;;;;6.63;100.00;99097.88;12201490;19;20007;-84
2022/04/05 10:43:17;;;;;;;12.13;6.50;;;;;;;6.62;100.00;99099.78;12181874;19;20011;-84
2022/04/05 10:47:20;;;;;;;13.05;7.40;;;;;;;6.77;100.00;99096.53;12210791;19;20015;-84
2022/04/05 10:52:11;;;;;;;17.77;8.27;;;;;;;7.02;100.00;99095.38;12221217;19;20031;-84
2022/04/05 10:56:14;;;;;;;13.88;7.45;;;;;;;7.13;100.00;99096.41;12197336;19;20513;-84
2022/04/05 11:00:19;;;;;;;;;;;;;;;7.14;100.00;99092.56;12226362;19;20501;-83
2022/04/05 11:04:24;;;;;;;11.48;6.60;;;;;;;7.25;100.00;99088.97;12205113;19;19930;-84
2022/04/05 11:08:27;;;;;;;11.77;7.30;;;;;;;7.33;100.00;99093.22;12233750;19;20015;-84
2022/04/05 11:12:30;;;;;;;9.90;6.70;;;;;;;7.41;100.00;99092.81;12228862;19;20072;-84
2022/04/05 11:16:32;;;;;;;10.55;7.28;;;;;;;7.48;100.00;99096.22;12210536;19;20950;-83
2022/04/05 11:20:35;;;;;;;11.65;6.63;;;;;;;7.48;100.00;99090.75;12236964;19;20010;-82
2022/04/05 11:25:04;;;;;;;12.43;7.25;;;;;;;7.64;100.00;99075.38;12222801;19;20013;-83
2022/04/05 11:29:20;;;;;;;11.55;7.03;;;;;;;7.79;100.00;99077.53;12220706;19;20006;-84
2022/04/05 11:33:34;;;;;;;10.43;6.03;;;;;;;7.96;100.00;99075.63;12219702;19;20007;-84
2022/04/05 11:37:36;;;;;;;9.02;5.45;;;;;;;8.09;100.00;99078.03;12213098;19;20014;-83
2022/04/05 11:41:38;;;;;;;7.88;5.40;;;;;;;8.09;100.00;99083.53;12222592;19;20011;-84
2022/04/05 11:45:41;;;;;;;9.85;6.00;;;;;;;8.11;100.00;99086.84;12218535;19;20014;-83
2022/04/05 11:49:43;;;;;;;8.48;4.82;;;;;;;8.08;100.00;99076.38;12197341;19;20007;-84
2022/04/05 11:53:46;;;;;;;7.68;4.47;;;;;;;8.03;100.00;99075.44;12210574;19;20030;-81
2022/04/05 11:57:48;;;;;;;6.63;4.80;;;;;;;8.01;100.00;99085.88;12199975;19;20511;-83
2022/04/05 12:01:51;;;;;;;7.30;4.40;;;;;;;8.00;100.00;99082.25;12221539;19;20367;-83
2022/04/05 12:05:53;;;;;;;6.90;4.35;;;;;;;8.01;100.00;99088.59;12214815;19;20007;-83
2022/04/05 12:09:54;;;;;;;6.85;4.20;;;;;;;8.01;100.00;99083.94;12193592;19;20007;-83
2022/04/05 12:14:16;;;;;;;9.50;5.07;;;;;;;8.04;100.00;99093.59;12213808;19;20014;-82
2022/04/05 12:18:24;;;;;;;9.95;4.25;;;;;;;8.07;100.00;99090.34;12227883;19;20006;-84
2022/04/05 12:22:32;;;;;;;5.97;4.32;;;;;;;8.08;100.00;99084.59;12227843;19;20081;-83
2022/04/05 12:26:34;;;;;;;7.38;4.50;;;;;;;8.13;100.00;99087.44;12233266;19;20011;-80
2022/04/05 12:30:35;;;;;;;7.80;4.82;;;;;;;8.15;100.00;99087.16;12219498;19;20002;-79
2022/04/05 12:34:38;;;;;;;9.15;5.07;;;;;;;8.20;100.00;99088.06;12227899;19;20013;-79
2022/04/05 12:38:40;;;;;;;8.40;5.25;;;;;;;8.22;100.00;99080.41;12205688;19;20118;-79
2022/04/05 12:42:42;;;;;;;9.55;5.32;;;;;;;8.29;100.00;99093.13;12202021;19;20074;-79
2022/04/05 12:47:08;;;;;;;8.13;4.93;;;;;;;8.28;100.00;99097.81;12188985;19;20071;-81
2022/04/05 12:51:10;;;;;;;7.63;4.90;;;;;;;8.24;100.00;99102.13;12211659;19;20023;-82
2022/04/05 12:55:15;;;;;;;9.65;5.45;;;;;;;8.26;100.00;99088.97;12186893;19;20010;-80
2022/04/05 12:59:26;;;;;;;8.18;5.50;;;;;;;8.35;100.00;99092.13;12217140;19;20024;-82
2022/04/05 13:03:32;;;;;;;7.50;4.88;;;;;;;8.35;100.00;99083.88;12221668;19;20087;-81
2022/04/05 13:07:34;;;;;;;9.10;6.15;;;;;;;8.47;100.00;99081.88;12187692;19;20018;-82
2022/04/05 13:11:37;;;;;;;10.77;5.32;;;;;;;8.58;100.00;99077.38;12207045;19;20116;-81
2022/04/05 13:15:39;;;;;;;9.02;6.00;;;;;;;8.58;100.00;99082.88;12195941;19;20019;-82
2022/04/05 13:19:54;;;;;;;9.43;5.93;;;;;;;8.64;100.00;99084.59;12192771;19;20042;-81
2022/04/05 13:24:02;;;;;;;11.68;6.30;;;;;;;8.67;100.00;99082.16;12220643;19;22054;-81
2022/04/05 13:28:07;;;;;;;10.57;6.47;;;;;;;8.64;100.00;99079.09;12183621;19;20010;-80
2022/04/05 13:32:20;;;;;;;12.23;6.78;;;;;;;8.68;100.00;99082.97;12207071;19;20033;-81
2022/04/05 13:36:21;;;;;;;11.48;7.50;;;;;;;8.63;100.00;99078.28;12214416;19;20040;-83
2022/04/05 13:40:24;;;;;;;12.75;7.93;;;;;;;8.67;100.00;99078.59;12188643;19;20011;-82
2022/04/05 13:44:26;;;;;;;10.55;6.38;;;;;;;8.73;100.00;99071.25;12210362;19;20015;-81
2022/04/05 13:48:28;;;;;;;12.65;7.38;;;;;;;8.72;100.00;99069.59;12209347;19;20003;-82
2022/04/05 13:52:30;;;;;;;12.60;8.10;;;;;;;8.70;100.00;99056.09;12184457;19;20334;-81
2022/04/05 13:56:35;;;;;;;12.50;7.78;;;;;;;8.63;100.00;99072.78;12205138;19;20520;-81
2022/04/05 14:00:37;;;;;;;15.38;8.85;;;;;;;8.66;100.00;99060.47;12199526;19;20019;-80
2022/04/05 14:04:39;;;;;;;13.97;8.40;;;;;;;8.94;100.00;99059.41;12184326;19;20017;-81
2022/04/05 14:08:43;;;;;;;14.95;9.77;;;;;;;9.05;99.90;99047.44;12207759;19;20426;-80
2022/04/05 14:12:45;;;;;;;13.15;7.57;;;;;;;9.08;99.60;99057.91;12203186;19;20562;-81
2022/04/05 14:16:47;;;;;;;13.13;8.50;;;;;;;8.92;100.00;99056.06;12175894;19;20034;-82
2022/04/05 14:20:50;;;;;;;13.68;8.68;;;;;;;8.85;100.00;99052.72;12211753;19;20014;-82
2022/04/05 14:24:52;;;;;;;12.18;7.47;;;;;;;8.83;100.00;99055.72;12191767;19;20003;-81
2022/04/05 14:28:56;;;;;;;12.20;7.80;;;;;;;8.72;100.00;99042.94;12216397;19;20421;-82
2022/04/05 14:32:59;;;;;;;11.60;8.05;;;;;;;8.81;100.00;99035.09;12208442;19;20007;-82
2022/04/05 14:37:01;;;;;;;16.33;8.10;;;;;;;8.84;100.00;99037.31;12193171;19;20027;-82
2022/04/05 14:41:11;;;;;;;11.23;7.50;;;;;;;8.84;100.00;99040.91;12200378;19;20017;-81
2022/04/05 14:45:13;;;;;;;11.35;7.55;;;;;;;8.83;100.00;99032.88;12207113;19;20019;-82
2022/04/05 14:49:26;;;;;;;10.87;7.17;;;;;;;8.82;100.00;99036.75;12195545;19;20011;-82
2022/04/05 14:53:28;;;;;;;;;;;;;;;8.78;100.00;99035.59;12215381;19;20013;-83
2022/04/05 14:57:30;;;;;;;11.25;7.10;;;;;;;8.76;100.00;99032.28;12226535;19;19915;-84
2022/04/05 15:01:32;;;;;;;12.37;7.83;;;;;;;8.78;100.00;99027.38;12203096;19;20398;-83
2022/04/05 15:05:34;;;;;;;12.95;7.38;;;;;;;8.81;100.00;99032.34;12221664;19;20021;-84
2022/04/05 15:09:39;;;;;;;10.00;6.45;;;;;;;8.77;100.00;99028.44;12218671;19;20035;-83
2022/04/05 15:13:43;;;;;;;10.75;6.85;;;;;;;8.77;100.00;99033.91;12199215;19;20343;-81
2022/04/05 15:18:07;;;;;;;11.82;6.95;;;;;;;8.65;100.00;99026.63;12216307;19;20089;-83
2022/04/05 15:22:10;;;;;;;11.87;7.23;;;;;;;8.65;100.00;99021.16;12231511;19;20042;-83
2022/04/05 15:26:19;;;;;;;11.15;6.82;;;;;;;8.59;100.00;99022.19;12227629;19;20011;-83
2022/04/05 15:30:24;;;;;;;12.52;7.05;;;;;;;8.64;100.00;99026.91;12234575;19;20017;-84
2022/04/05 15:34:26;;;;;;;13.43;7.40;;;;;;;8.70;100.00;99025.88;12191709;19;20007;-84
2022/04/05 15:38:54;;;;;;;11.93;6.78;;;;;;;8.69;100.00;99028.91;12221606;19;20026;-84
2022/04/05 15:43:03;;;;;;;15.00;7.97;;;;;;;8.65;100.00;99031.31;12191278;19;20361;-82
2022/04/05 15:47:14;;;;;;;12.30;7.43;;;;;;;8.67;100.00;99023.66;12215212;19;20006;-83
2022/04/05 15:51:30;;;;;;;12.70;6.65;;;;;;;8.69;100.00;99021.50;12216528;19;20021;-83
2022/04/05 15:55:33;;;;;;;9.98;7.10;;;;;;;8.62;100.00;99016.16;12201004;19;20011;-83
2022/04/05 15:59:35;;;;;;;11.13;6.63;;;;;;;8.66;100.00;99019.25;12231181;19;20007;-83
2022/04/05 16:03:37;;;;;;;10.85;6.30;;;;;;;8.74;100.00;99024.28;12213333;19;20014;-82
2022/04/05 16:07:39;;;;;;;12.93;6.60;;;;;;;8.72;100.00;99026.47;12196393;19;20104;-83
2022/04/05 16:11:44;;;;;;;12.20;7.13;;;;;;;8.75;100.00;99014.97;12230181;19;20018;-82
2022/04/05 16:15:45;;;;;;;13.73;7.38;;;;;;;8.80;100.00;99022.41;12212454;19;20030;-82
2022/04/05 16:19:48;;;;;;;13.02;7.68;;;;;;;8.75;100.00;99019.63;12201250;19;20370;-83
2022/04/05 16:23:59;;;;;;;13.00;7.93;;;;;;;8.76;100.00;99024.84;12223599;19;20011;-84
2022/04/05 16:28:02;;;;;;;13.52;7.22;;;;;;;8.70;100.00;99019.56;12194521;19;20498;-81
2022/04/05 16:32:04;;;;;;;9.98;5.90;;;;;;;8.65;100.00;99021.16;12214679;19;20090;-81
2022/04/05 16:36:14;;;;;;;14.10;8.13;;;;;;;8.70;100.00;99019.56;12207308;19;20073;-80
2022/04/05 16:40:16;;;;;;;15.10;8.35;;;;;;;8.67;100.00;99018.16;12189428;19;20255;-81
2022/04/05 16:44:19;;;;;;;12.65;6.60;;;;;;;8.65;100.00;99009.34;12207876;19;20469;-80
2022/04/05 16:48:27;;;;;;;13.35;7.10;;;;;;;8.66;100.00;99016.50;12217911;19;20006;-81
2022/04/05 16:52:31;;;;;;;13.30;7.80;;;;;;;8.71;100.00;99024.78;12173032;19;20010;-81
2022/04/05 16:56:35;;;;;;;10.38;6.65;;;;;;;8.72;100.00;99020.16;12206650;19;20464;-80
2022/04/05 17:00:38;;;;;;;13.73;7.47;;;;;;;8.77;100.00;99014.69;12208210;19;20011;-80
2022/04/05 17:04:39;;;;;;;13.10;7.60;;;;;;;8.77;100.00;99017.44;12185422;19;20027;-80
2022/04/05 17:08:41;;;;;;;11.88;6.78;;;;;;;8.81;100.00;99022.19;12212759;19;20010;-79
2022/04/05 17:12:43;;;;;;;13.18;7.53;;;;;;;8.82;100.00;99020.25;12200995;19;20348;-80
2022/04/05 17:16:44;;;;;;;11.85;7.55;;;;;;;8.85;100.00;99025.22;12183532;19;20074;-80
2022/04/05 17:20:46;;;;;;;11.13;6.82;;;;;;;8.89;100.00;99027.22;12210579;19;20015;-80
2022/04/05 17:24:49;;;;;;;12.90;7.00;;;;;;;8.94;100.00;99028.34;12191320;19;20021;-80
2022/04/05 17:28:51;;;;;;;11.10;6.50;;;;;;;8.90;100.00;99039.03;12202863;19;20028;-78
2022/04/05 17:32:53;;;;;;;11.07;6.78;;;;;;;8.74;100.00;99035.25;12207618;19;20021;-80
2022/04/05 17:36:55;;;;;;;13.50;7.60;;;;;;;8.72;100.00;99037.47;12192448;19;20006;-79
2022/04/05 17:40:57;;;;;;;10.02;6.85;;;;;;;8.65;100.00;99042.28;12206697;19;20014;-80
2022/04/05 17:44:59;;;;;;;11.07;7.57;;;;;;;8.63;100.00;99044.50;12200581;19;20010;-80
2022/04/05 17:49:00;;;;;;;14.10;7.93;;;;;;;8.58;100.00;99042.50;12178813;19;20011;-79
2022/04/05 17:53:02;;;;;;;11.52;6.60;;;;;;;8.56;100.00;99041.91;12199041;19;20011;-79
2022/04/05 17:57:07;;;;;;;9.90;6.57;;;;;;;8.60;100.00;99050.50;12197794;19;20006;-79
2022/04/05 18:01:15;;;;;;;11.93;7.32;;;;;;;8.61;100.00;99041.97;12182173;19;20098;-80
2022/04/05 18:05:17;;;;;;;10.27;6.93;;;;;;;8.65;100.00;99045.88;12204663;19;20074;-80
2022/04/05 18:09:19;;;;;;;14.60;7.65;;;;;;;8.71;100.00;99040.44;12199864;19;20057;-79
2022/04/05 18:13:20;;;;;;;11.85;7.40;;;;;;;8.73;100.00;99039.09;12173184;19;20559;-80
2022/04/05 18:17:23;;;;;;;12.98;7.50;;;;;;;8.74;100.00;99046.25;12201754;19;20006;-79
2022/04/05 18:21:25;;;;;;;10.43;6.78;;;;;;;8.74;100.00;99043.50;12209539;19;20027;-79
2022/04/05 18:25:26;;;;;;;12.55;6.88;;;;;;;8.78;100.00;99046.59;12183186;19;20027;-80
2022/04/05 18:29:28;;;;;;;11.90;6.85;;;;;;;8.79;100.00;99045.50;12198959;19;20366;-81
2022/04/05 18:33:30;;;;;;;10.35;6.78;;;;;;;8.84;100.00;99053.81;12206321;19;20011;-79
2022/04/05 18:37:34;;;;;;;11.33;6.70;;;;;;;8.89;100.00;99053.84;12182534;19;20429;-83
2022/04/05 18:41:36;;;;;;;10.48;6.90;;;;;;;8.86;100.00;99052.47;12198499;19;20138;-79
2022/04/05 18:45:39;;;;;;;11.55;6.43;;;;;;;8.90;100.00;99061.00;12199783;19;20447;-80
2022/04/05 18:49:41;;;;;;;16.73;7.80;;;;;;;8.91;100.00;99062.66;12185369;19;19998;-79
2022/04/05 18:53:43;;;;;;;10.27;6.60;;;;;;;8.94;100.00;99064.91;12192951;19;20027;-80